createdAt,value
2022-08-03T00:00:27.305Z,18.79
2022-08-03T00:02:54.182Z,18.96
2022-08-03T00:05:21.152Z,19.01
2022-08-03T00:07:48.487Z,19.04
2022-08-03T00:10:17.511Z,18.99
2022-08-03T00:12:44.277Z,19.29
2022-08-03T00:15:16.396Z,19.17
2022-08-03T00:17:52.607Z,19.11
2022-08-03T00:20:22.116Z,19.13
2022-08-03T00:22:49.544Z,19.08
2022-08-03T00:25:16.835Z,18.99
2022-08-03T00:27:43.603Z,18.98
2022-08-03T00:30:10.908Z,18.86
2022-08-03T00:32:38.880Z,18.76
2022-08-03T00:35:18.077Z,18.76
2022-08-03T00:37:58.886Z,18.70
2022-08-03T00:40:25.687Z,18.67
2022-08-03T00:42:58.234Z,18.59
2022-08-03T00:45:30.481Z,18.54
2022-08-03T00:47:57.987Z,18.55
2022-08-03T00:50:26.817Z,18.53
2022-08-03T00:52:56.275Z,18.46
2022-08-03T00:55:24.403Z,18.40
2022-08-03T00:57:51.993Z,18.37
2022-08-03T01:00:23.397Z,18.45
2022-08-03T01:02:50.400Z,18.32
2022-08-03T01:05:17.945Z,18.36
2022-08-03T01:08:05.982Z,18.30
2022-08-03T01:10:38.752Z,18.27
2022-08-03T01:14:01.411Z,18.28
2022-08-03T01:16:22.886Z,18.31
2022-08-03T01:19:11.653Z,18.30
2022-08-03T01:21:56.608Z,18.30
2022-08-03T01:24:50.633Z,18.19
2022-08-03T01:27:29.836Z,18.14
2022-08-03T01:30:12.416Z,18.11
2022-08-03T01:33:03.789Z,18.08
2022-08-03T01:35:42.331Z,18.06
2022-08-03T01:38:35.744Z,18.00
2022-08-03T01:41:09.094Z,18.08
2022-08-03T01:43:55.206Z,17.97
2022-08-03T01:46:26.475Z,18.02
2022-08-03T01:48:55.233Z,17.95
2022-08-03T01:51:22.534Z,17.97
2022-08-03T01:53:51.317Z,18.02
2022-08-03T01:56:20.366Z,18.21
2022-08-03T01:58:49.994Z,18.14
2022-08-03T02:01:18.845Z,18.16
2022-08-03T02:03:59.841Z,18.14
2022-08-03T02:07:02.356Z,18.24
2022-08-03T02:09:20.636Z,18.25
2022-08-03T02:11:48.517Z,18.40
2022-08-03T02:14:17.295Z,18.24
2022-08-03T02:16:45.804Z,18.15
2022-08-03T02:19:13.607Z,18.12
2022-08-03T02:21:56.911Z,18.09
2022-08-03T02:24:28.975Z,18.16
2022-08-03T02:26:56.659Z,18.10
2022-08-03T02:29:39.652Z,18.08
2022-08-03T02:32:12.954Z,18.08
2022-08-03T02:34:44.127Z,18.15
2022-08-03T02:37:13.680Z,18.21
2022-08-03T02:39:42.905Z,18.29
2022-08-03T02:42:12.185Z,18.35
2022-08-03T02:44:41.654Z,18.48
2022-08-03T02:47:10.928Z,18.47
2022-08-03T02:49:50.678Z,18.46
2022-08-03T02:52:23.576Z,18.53
2022-08-03T02:54:55.001Z,18.55
2022-08-03T02:57:23.360Z,18.44
2022-08-03T02:59:51.930Z,18.49
2022-08-03T03:02:20.076Z,18.53
2022-08-03T03:05:51.436Z,18.39
2022-08-03T03:07:52.024Z,18.45
2022-08-03T03:10:23.248Z,18.42
2022-08-03T03:12:58.467Z,18.38
2022-08-03T03:15:27.032Z,18.34
2022-08-03T03:17:55.166Z,18.26
2022-08-03T03:20:29.741Z,18.17
2022-08-03T03:23:01.560Z,18.06
2022-08-03T03:25:33.290Z,18.01
2022-08-03T03:28:01.998Z,17.99
2022-08-03T03:30:30.097Z,17.95
2022-08-03T03:32:58.840Z,17.94
2022-08-03T03:35:27.250Z,18.02
2022-08-03T03:37:54.844Z,17.93
2022-08-03T03:40:22.511Z,17.87
2022-08-03T03:42:50.186Z,17.84
2022-08-03T03:45:17.935Z,17.93
2022-08-03T03:47:44.747Z,17.97
2022-08-03T03:50:11.763Z,17.97
2022-08-03T03:52:38.636Z,17.95
2022-08-03T03:55:05.819Z,18.05
2022-08-03T03:57:34.402Z,18.09
2022-08-03T04:00:01.076Z,18.16
2022-08-03T04:02:27.830Z,18.19
2022-08-03T04:05:13.055Z,18.20
2022-08-03T04:08:14.513Z,18.31
2022-08-03T04:10:59.207Z,18.38
2022-08-03T04:13:34.223Z,18.44
2022-08-03T04:16:01.948Z,18.49
2022-08-03T04:18:32.710Z,18.56
2022-08-03T04:21:03.550Z,18.62
2022-08-03T04:23:34.866Z,18.73
2022-08-03T04:26:03.604Z,18.74
2022-08-03T04:28:32.408Z,18.89
2022-08-03T04:31:01.298Z,18.95
2022-08-03T04:33:32.394Z,19.08
2022-08-03T04:36:03.456Z,19.54
2022-08-03T04:38:37.062Z,19.96
2022-08-03T04:41:04.267Z,20.22
2022-08-03T04:43:34.147Z,20.40
2022-08-03T04:46:02.063Z,20.41
2022-08-03T04:48:29.219Z,20.41
2022-08-03T04:50:55.987Z,20.44
2022-08-03T04:53:22.748Z,20.59
2022-08-03T04:55:50.314Z,20.58
2022-08-03T04:58:16.989Z,20.80
2022-08-03T05:00:45.660Z,20.89
2022-08-03T05:03:20.347Z,20.92
2022-08-03T05:06:09.517Z,21.03
2022-08-03T05:08:46.514Z,21.09
2022-08-03T05:11:16.727Z,20.98
2022-08-03T05:13:44.715Z,20.91
2022-08-03T05:16:12.286Z,20.70
2022-08-03T05:18:38.949Z,20.57
2022-08-03T05:21:05.677Z,20.48
2022-08-03T05:23:32.377Z,20.36
2022-08-03T05:25:59.169Z,20.59
2022-08-03T05:28:26.092Z,20.73
2022-08-03T05:30:52.834Z,20.89
2022-08-03T05:33:19.770Z,21.03
2022-08-03T05:35:56.123Z,21.06
2022-08-03T05:38:34.358Z,21.41
2022-08-03T05:41:22.096Z,21.53
2022-08-03T05:43:56.245Z,21.66
2022-08-03T05:46:23.617Z,21.70
2022-08-03T05:48:50.787Z,21.76
2022-08-03T05:51:17.827Z,21.96
2022-08-03T05:53:45.112Z,21.91
2022-08-03T05:56:14.060Z,21.99
2022-08-03T05:58:46.110Z,22.04
2022-08-03T06:01:13.205Z,22.22
2022-08-03T06:03:40.323Z,22.04
2022-08-03T06:06:07.185Z,22.31
2022-08-03T06:08:34.963Z,22.46
2022-08-03T06:11:03.833Z,22.48
2022-08-03T06:13:30.569Z,22.62
2022-08-03T06:15:57.278Z,22.66
2022-08-03T06:18:25.495Z,22.62
2022-08-03T06:20:53.122Z,22.68
2022-08-03T06:23:20.035Z,22.86
2022-08-03T06:25:47.652Z,22.93
2022-08-03T06:28:42.393Z,23.00
2022-08-03T06:31:02.233Z,23.37
2022-08-03T06:34:30.360Z,24.58
2022-08-03T06:36:15.928Z,26.23
2022-08-03T06:38:42.631Z,26.57
2022-08-03T06:41:09.392Z,26.45
2022-08-03T06:43:38.049Z,27.68
2022-08-03T06:46:24.547Z,28.22
2022-08-03T06:48:53.227Z,29.16
2022-08-03T06:51:20.141Z,28.41
2022-08-03T06:53:46.827Z,28.46
2022-08-03T06:56:13.682Z,28.07
2022-08-03T06:58:40.725Z,30.08
2022-08-03T07:01:07.577Z,29.39
2022-08-03T07:03:34.312Z,28.48
2022-08-03T07:06:02.504Z,30.09
2022-08-03T07:08:33.600Z,29.96
2022-08-03T07:11:01.631Z,30.50
2022-08-03T07:13:28.374Z,29.10
2022-08-03T07:15:56.400Z,29.43
2022-08-03T07:18:28.303Z,28.88
2022-08-03T07:20:57.841Z,27.62
2022-08-03T07:23:25.678Z,28.13
2022-08-03T07:25:52.861Z,28.17
2022-08-03T07:28:20.367Z,27.36
2022-08-03T07:30:47.364Z,26.35
2022-08-03T07:33:14.515Z,26.13
2022-08-03T07:35:41.281Z,25.97
2022-08-03T07:38:08.044Z,25.74
2022-08-03T07:40:34.826Z,25.84
2022-08-03T07:43:03.366Z,26.30
2022-08-03T07:45:31.421Z,26.23
2022-08-03T07:47:58.259Z,26.40
2022-08-03T07:50:25.547Z,26.38
2022-08-03T07:52:53.640Z,26.25
2022-08-03T07:55:25.527Z,26.01
2022-08-03T07:58:12.168Z,26.41
2022-08-03T08:00:38.933Z,26.25
2022-08-03T08:03:05.759Z,26.02
2022-08-03T08:05:32.803Z,26.02
2022-08-03T08:08:00.993Z,26.82
2022-08-03T08:10:31.082Z,26.79
2022-08-03T08:12:57.842Z,27.06
2022-08-03T08:15:25.182Z,27.01
2022-08-03T08:17:54.847Z,26.96
2022-08-03T08:20:31.949Z,27.31
2022-08-03T08:23:37.663Z,27.16
2022-08-03T08:25:53.871Z,27.13
2022-08-03T08:28:32.353Z,27.37
2022-08-03T08:31:00.557Z,27.14
2022-08-03T08:33:37.224Z,27.71
2022-08-03T08:36:15.571Z,27.31
2022-08-03T08:38:44.912Z,27.30
2022-08-03T08:41:13.795Z,27.41
2022-08-03T08:43:41.587Z,27.52
2022-08-03T08:46:12.397Z,27.58
2022-08-03T08:48:42.361Z,27.75
2022-08-03T08:51:11.472Z,27.65
2022-08-03T08:53:41.733Z,27.32
2022-08-03T08:56:15.390Z,27.51
2022-08-03T08:58:49.321Z,27.30
2022-08-03T09:01:20.138Z,27.63
2022-08-03T09:03:48.203Z,27.86
2022-08-03T09:06:15.375Z,28.12
2022-08-03T09:08:42.427Z,27.81
2022-08-03T09:11:09.538Z,28.06
2022-08-03T09:13:39.993Z,28.43
2022-08-03T09:16:18.966Z,28.04
2022-08-03T09:18:50.073Z,28.06
2022-08-03T09:21:33.187Z,28.33
2022-08-03T09:24:04.186Z,28.52
2022-08-03T09:26:34.296Z,28.23
2022-08-03T09:29:14.511Z,28.36
2022-08-03T09:31:45.335Z,28.18
2022-08-03T09:34:18.108Z,28.47
2022-08-03T09:36:47.289Z,28.19
2022-08-03T09:39:16.798Z,27.94
2022-08-03T09:41:46.094Z,27.95
2022-08-03T09:44:16.185Z,27.86
2022-08-03T09:46:57.034Z,27.94
2022-08-03T09:49:25.183Z,28.15
2022-08-03T09:52:29.541Z,28.51
2022-08-03T09:54:41.305Z,28.27
2022-08-03T09:57:08.472Z,28.93
2022-08-03T09:59:35.708Z,29.23
2022-08-03T10:02:06.117Z,29.32
2022-08-03T10:04:32.968Z,28.75
2022-08-03T10:07:10.961Z,28.54
2022-08-03T10:09:38.450Z,28.48
2022-08-03T10:12:10.905Z,28.58
2022-08-03T10:14:42.404Z,28.88
2022-08-03T10:17:12.741Z,28.88
2022-08-03T10:19:41.856Z,28.97
2022-08-03T10:22:16.903Z,29.62
2022-08-03T10:24:53.382Z,29.36
2022-08-03T10:27:22.826Z,29.25
2022-08-03T10:29:54.558Z,29.57
2022-08-03T10:32:29.332Z,29.83
2022-08-03T10:35:19.663Z,30.06
2022-08-03T10:37:58.781Z,30.05
2022-08-03T10:40:49.776Z,30.18
2022-08-03T10:43:26.140Z,30.40
2022-08-03T10:45:53.058Z,30.02
2022-08-03T10:48:20.851Z,30.24
2022-08-03T10:50:50.206Z,29.88
2022-08-03T10:53:20.005Z,30.15
2022-08-03T10:56:05.594Z,30.34
2022-08-03T10:58:53.318Z,30.10
2022-08-03T11:01:59.986Z,29.40
2022-08-03T11:04:29.931Z,29.14
2022-08-03T11:07:15.950Z,28.79
2022-08-03T11:09:45.032Z,28.75
2022-08-03T11:12:31.406Z,28.33
2022-08-03T11:15:03.489Z,28.14
2022-08-03T11:17:30.774Z,27.90
2022-08-03T11:19:58.622Z,27.68
2022-08-03T11:22:28.653Z,28.01
2022-08-03T11:24:56.431Z,28.73
2022-08-03T11:27:33.855Z,29.30
2022-08-03T11:30:09.868Z,29.41
2022-08-03T11:32:49.144Z,29.16
2022-08-03T11:35:26.175Z,29.21
2022-08-03T11:38:05.009Z,29.62
2022-08-03T11:40:51.844Z,29.63
2022-08-03T11:43:31.639Z,28.91
2022-08-03T11:45:59.922Z,28.97
2022-08-03T11:48:37.667Z,29.22
2022-08-03T11:51:19.187Z,29.16
2022-08-03T11:53:47.871Z,29.44
2022-08-03T11:56:14.865Z,30.12
2022-08-03T11:59:01.447Z,29.88
2022-08-03T12:01:41.725Z,29.57
2022-08-03T12:04:10.481Z,29.32
2022-08-03T12:06:55.519Z,28.68
2022-08-03T12:09:22.704Z,28.78
2022-08-03T12:11:59.348Z,28.90
2022-08-03T12:14:49.466Z,29.32
2022-08-03T12:17:15.201Z,29.16
2022-08-03T12:19:43.384Z,29.50
2022-08-03T12:22:10.762Z,29.68
2022-08-03T12:24:46.750Z,29.85
2022-08-03T12:27:23.285Z,29.56
2022-08-03T12:29:58.359Z,29.78
2022-08-03T12:32:26.955Z,29.88
2022-08-03T12:34:54.314Z,30.05
2022-08-03T12:37:25.940Z,30.28
2022-08-03T12:40:02.790Z,30.49
2022-08-03T12:42:37.819Z,30.25
2022-08-03T12:45:26.516Z,30.33
2022-08-03T12:48:01.573Z,30.09
2022-08-03T12:50:34.116Z,30.13
2022-08-03T12:53:03.289Z,29.84
2022-08-03T12:55:40.193Z,29.86
2022-08-03T12:58:35.495Z,29.29
2022-08-03T13:01:09.772Z,29.52
2022-08-03T13:03:50.520Z,29.55
2022-08-03T13:06:26.563Z,29.76
2022-08-03T13:09:05.566Z,29.75
2022-08-03T13:11:58.079Z,29.40
2022-08-03T13:14:20.567Z,29.01
2022-08-03T13:16:49.234Z,29.20
2022-08-03T13:19:16.813Z,29.08
2022-08-03T13:22:01.851Z,28.83
2022-08-03T13:24:32.636Z,29.08
2022-08-03T13:27:00.812Z,29.50
2022-08-03T13:29:47.604Z,29.41
2022-08-03T13:32:14.880Z,29.18
2022-08-03T13:34:42.403Z,29.62
2022-08-03T13:37:10.215Z,29.82
2022-08-03T13:39:57.244Z,29.77
2022-08-03T13:42:25.674Z,29.66
2022-08-03T13:44:52.957Z,29.56
2022-08-03T13:47:20.670Z,29.66
2022-08-03T13:49:59.631Z,29.78
2022-08-03T13:52:28.344Z,29.33
2022-08-03T13:54:55.373Z,29.54
2022-08-03T13:58:03.456Z,29.78
2022-08-03T14:00:10.607Z,29.56
2022-08-03T14:02:38.169Z,29.64
2022-08-03T14:05:05.953Z,29.41
2022-08-03T14:07:33.913Z,29.57
2022-08-03T14:10:02.102Z,29.93
2022-08-03T14:12:29.970Z,29.86
2022-08-03T14:15:01.164Z,29.56
2022-08-03T14:17:42.344Z,29.51
2022-08-03T14:20:38.897Z,29.49
2022-08-03T14:23:04.195Z,28.97
2022-08-03T14:25:43.623Z,29.04
2022-08-03T14:28:17.060Z,29.40
2022-08-03T14:30:44.215Z,29.70
2022-08-03T14:33:11.835Z,29.99
2022-08-03T14:35:39.686Z,30.09
2022-08-03T14:38:07.525Z,30.01
2022-08-03T14:40:35.458Z,29.96
2022-08-03T14:43:03.038Z,30.00
2022-08-03T14:45:30.321Z,29.72
2022-08-03T14:50:33.697Z,29.60
2022-08-03T14:50:51.403Z,29.31
2022-08-03T14:53:19.694Z,29.14
2022-08-03T14:55:50.264Z,29.14
2022-08-03T14:58:19.598Z,29.37
2022-08-03T15:00:47.853Z,29.34
2022-08-03T15:03:17.049Z,29.41
2022-08-03T15:05:44.853Z,29.47
2022-08-03T15:08:12.577Z,29.55
2022-08-03T15:10:43.709Z,29.59
2022-08-03T15:13:13.660Z,29.62
2022-08-03T15:15:41.021Z,29.45
2022-08-03T15:18:08.616Z,29.36
2022-08-03T15:20:51.098Z,29.21
2022-08-03T15:23:19.418Z,29.06
2022-08-03T15:26:27.839Z,28.68
2022-08-03T15:28:37.314Z,28.77
2022-08-03T15:31:05.663Z,28.64
2022-08-03T15:33:32.850Z,29.07
2022-08-03T15:36:02.576Z,29.26
2022-08-03T15:38:29.879Z,29.08
2022-08-03T15:40:59.172Z,29.30
2022-08-03T15:43:27.825Z,29.42
2022-08-03T15:46:19.514Z,29.38
2022-08-03T15:48:42.926Z,29.04
2022-08-03T15:51:10.566Z,28.70
2022-08-03T15:53:38.773Z,28.66
2022-08-03T15:56:13.323Z,28.62
2022-08-03T15:59:03.690Z,28.86
2022-08-03T16:01:32.039Z,28.92
2022-08-03T16:03:59.083Z,28.94
2022-08-03T16:06:29.624Z,28.95
2022-08-03T16:09:04.545Z,28.78
2022-08-03T16:11:32.247Z,28.80
2022-08-03T16:14:05.552Z,28.60
2022-08-03T16:16:47.244Z,28.55
2022-08-03T16:19:14.252Z,28.52
2022-08-03T16:21:48.436Z,28.53
2022-08-03T16:24:17.479Z,28.49
2022-08-03T16:26:50.719Z,28.43
2022-08-03T16:29:22.616Z,28.41
2022-08-03T16:31:50.904Z,28.21
2022-08-03T16:34:19.038Z,28.35
2022-08-03T16:36:46.151Z,28.42
2022-08-03T16:39:13.836Z,28.42
2022-08-03T16:41:53.665Z,28.42
2022-08-03T16:44:32.245Z,28.34
2022-08-03T16:46:59.816Z,28.52
2022-08-03T16:49:54.467Z,28.72
2022-08-03T16:52:16.511Z,28.77
2022-08-03T16:54:53.276Z,28.87
2022-08-03T16:57:58.142Z,28.97
2022-08-03T17:00:11.492Z,28.68
2022-08-03T17:02:48.019Z,28.62
2022-08-03T17:05:16.411Z,28.62
2022-08-03T17:07:50.771Z,28.76
2022-08-03T17:10:27.336Z,28.82
2022-08-03T17:12:55.423Z,28.52
2022-08-03T17:16:01.964Z,28.72
2022-08-03T17:18:18.108Z,28.84
2022-08-03T17:20:50.948Z,28.77
2022-08-03T17:23:35.914Z,28.59
2022-08-03T17:26:10.576Z,28.44
2022-08-03T17:28:57.230Z,28.38
2022-08-03T17:31:31.685Z,28.26
2022-08-03T17:34:04.564Z,28.21
2022-08-03T17:37:02.683Z,28.05
2022-08-03T17:39:48.354Z,28.05
2022-08-03T17:42:30.422Z,28.10
2022-08-03T17:45:02.393Z,28.04
2022-08-03T17:47:56.966Z,28.01
2022-08-03T17:50:28.821Z,27.90
2022-08-03T17:53:15.107Z,27.85
2022-08-03T17:56:04.872Z,27.85
2022-08-03T17:59:08.591Z,27.65
2022-08-03T18:02:29.771Z,27.62
2022-08-03T18:05:16.313Z,27.45
2022-08-03T18:08:03.584Z,27.40
2022-08-03T18:10:36.730Z,27.34
2022-08-03T18:13:24.063Z,27.23
2022-08-03T18:16:02.634Z,27.19
2022-08-03T18:18:43.910Z,27.10
2022-08-03T18:21:17.019Z,26.97
2022-08-03T18:23:50.099Z,26.83
2022-08-03T18:26:18.998Z,26.68
2022-08-03T18:28:48.863Z,26.57
2022-08-03T18:32:00.219Z,26.48
2022-08-03T18:34:19.855Z,26.38
2022-08-03T18:36:56.452Z,26.25
2022-08-03T18:39:23.865Z,26.14
2022-08-03T18:41:52.513Z,26.01
2022-08-03T18:44:52.497Z,25.92
2022-08-03T18:47:51.542Z,25.81
2022-08-03T18:50:28.253Z,25.70
2022-08-03T18:54:02.494Z,25.52
2022-08-03T18:56:45.099Z,25.39
2022-08-03T18:59:30.892Z,25.19
2022-08-03T19:02:09.226Z,25.16
2022-08-03T19:04:47.338Z,25.02
2022-08-03T19:07:35.826Z,24.94
2022-08-03T19:16:08.673Z,24.63
2022-08-03T19:18:44.771Z,24.59
2022-08-03T19:21:16.892Z,24.48
2022-08-03T19:23:49.276Z,24.42
2022-08-03T19:26:30.220Z,24.35
2022-08-03T19:29:03.162Z,24.21
2022-08-03T19:31:35.016Z,24.08
2022-08-03T19:34:03.988Z,23.96
2022-08-03T19:36:35.895Z,23.88
2022-08-03T19:39:11.108Z,23.72
2022-08-03T19:41:42.470Z,23.69
2022-08-03T19:44:19.926Z,23.56
2022-08-03T19:47:03.019Z,23.43
2022-08-03T19:50:05.977Z,23.14
2022-08-03T19:52:31.342Z,23.07
2022-08-03T20:00:58.788Z,22.97
2022-08-03T20:06:08.500Z,22.82
2022-08-03T20:11:45.003Z,22.74
2022-08-03T20:14:27.040Z,22.71
2022-08-03T20:16:59.639Z,22.61
2022-08-03T20:19:36.611Z,22.50
2022-08-03T20:22:14.496Z,22.43
2022-08-03T20:24:52.800Z,22.35
2022-08-03T20:28:05.883Z,22.32
2022-08-03T20:33:48.487Z,22.35
2022-08-03T20:36:23.610Z,22.35
2022-08-03T20:39:07.718Z,22.45
2022-08-03T20:41:44.874Z,22.29
2022-08-03T20:47:13.705Z,22.36
2022-08-03T20:49:56.353Z,22.41
2022-08-03T20:52:49.384Z,22.42
2022-08-03T21:01:27.491Z,21.90
2022-08-03T21:10:10.122Z,21.94
2022-08-03T21:13:07.725Z,22.37
2022-08-03T21:13:15.322Z,21.95
2022-08-03T21:16:12.811Z,21.79
2022-08-03T21:18:56.114Z,21.72
2022-08-03T21:21:38.195Z,21.53
2022-08-03T21:24:16.666Z,21.68
2022-08-03T21:26:48.287Z,21.60
2022-08-03T21:29:16.969Z,21.39
2022-08-03T21:31:44.662Z,21.29
2022-08-03T21:34:12.890Z,21.26
2022-08-03T21:36:40.952Z,21.23
2022-08-03T21:39:10.475Z,21.15
2022-08-03T21:41:40.534Z,21.35
2022-08-03T21:44:08.694Z,21.37
2022-08-03T21:46:39.595Z,21.30
2022-08-03T21:50:04.203Z,21.16
2022-08-03T21:52:05.151Z,21.14
2022-08-03T21:54:41.207Z,21.30
2022-08-03T21:57:20.748Z,21.34
2022-08-03T22:00:06.935Z,21.20
2022-08-03T22:02:35.764Z,21.20
2022-08-03T22:05:04.968Z,21.17
2022-08-03T22:07:32.962Z,21.24
2022-08-03T22:10:02.840Z,21.30
2022-08-03T22:12:32.684Z,21.30
2022-08-03T22:15:02.435Z,21.26
2022-08-03T22:17:55.810Z,21.04
2022-08-03T22:20:20.776Z,20.89
2022-08-03T22:22:56.095Z,20.82
2022-08-03T22:25:29.704Z,20.77
2022-08-03T22:28:00.465Z,20.88
2022-08-03T22:30:28.763Z,21.01
2022-08-03T22:32:57.827Z,21.02
2022-08-03T22:35:27.421Z,20.63
2022-08-03T22:37:58.392Z,20.51
2022-08-03T22:40:28.081Z,20.54
2022-08-03T22:42:57.884Z,20.38
2022-08-03T22:46:07.817Z,20.45
2022-08-03T22:48:17.971Z,20.46
2022-08-03T22:50:46.511Z,20.38
2022-08-03T22:53:22.414Z,20.42
2022-08-03T22:55:51.727Z,20.28
2022-08-03T22:58:21.117Z,20.46
2022-08-03T23:00:56.919Z,20.36
2022-08-03T23:03:59.943Z,20.41
2022-08-03T23:06:17.112Z,20.07
2022-08-03T23:08:47.674Z,20.06
2022-08-03T23:11:18.300Z,19.96
2022-08-03T23:13:52.650Z,20.03
2022-08-03T23:16:28.897Z,19.95
2022-08-03T23:18:59.850Z,20.08
2022-08-03T23:21:53.072Z,20.09
2022-08-03T23:24:30.360Z,20.03
2022-08-03T23:27:06.985Z,20.20
2022-08-03T23:29:36.722Z,20.23
2022-08-03T23:32:05.974Z,20.14
2022-08-03T23:34:53.141Z,20.04
2022-08-03T23:37:22.240Z,20.15
2022-08-03T23:39:50.552Z,20.22
2022-08-03T23:42:20.435Z,20.20
2022-08-03T23:44:53.636Z,20.19
2022-08-03T23:47:21.964Z,20.29
2022-08-03T23:49:50.350Z,20.38
2022-08-03T23:52:34.489Z,20.34
2022-08-03T23:55:18.789Z,20.21
2022-08-03T23:58:17.299Z,20.18
